Time;durP1;ratioP1;P1;durP2;ratioP2;P2;SDS_P1;SDS_P2;PMS_P1;PMS_P2;Temp;Humidity;BMP_temperature;BMP_pressure;BME280_temperature;BME280_humidity;BME280_pressure;Samples;Min_cycle;Max_cycle;Signal;HPM_P1;HPM_P2
2023/07/29 00:00:42;;;;;;;9.82;6.90;;;14.80;99.90;;;13.68;100.00;100368.66;4954511;28;20054;-78
2023/07/29 00:03:11;;;;;;;12.25;6.35;;;14.80;99.90;;;13.69;100.00;100370.38;4961633;28;20045;-78
2023/07/29 00:05:38;;;;;;;7.40;5.13;;;14.80;99.90;;;13.79;100.00;100372.41;4965404;28;20062;-78
2023/07/29 00:08:04;;;;;;;9.63;5.90;;;14.80;99.90;;;13.82;100.00;100374.81;4977425;28;20039;-78
2023/07/29 00:10:32;;;;;;;9.30;4.90;;;14.90;99.90;;;13.87;100.00;100375.41;4971816;28;20095;-77
2023/07/29 00:12:59;;;;;;;7.30;4.85;;;14.90;99.90;;;13.91;100.00;100377.72;4981205;28;20586;-78
2023/07/29 00:15:29;;;;;;;6.05;3.80;;;14.90;99.90;;;13.90;100.00;100376.03;4961176;28;20095;-78
2023/07/29 00:17:55;;;;;;;7.18;4.63;;;14.90;99.90;;;13.88;100.00;100377.91;4955397;28;20045;-77
2023/07/29 00:20:21;;;;;;;6.68;5.13;;;14.20;99.90;;;13.88;100.00;100371.78;4940401;28;20458;-79
2023/07/29 00:22:49;;;;;;;6.85;5.07;;;14.90;99.90;;;13.95;100.00;100387.16;4948113;28;20061;-78
2023/07/29 00:25:24;;;;;;;8.63;5.07;;;15.00;99.90;;;13.96;100.00;100385.38;4986985;28;20033;-78
2023/07/29 00:27:50;;;;;;;11.23;6.00;;;14.90;99.90;;;13.93;100.00;100375.84;4952240;28;20085;-77
2023/07/29 00:30:16;;;;;;;7.50;5.97;;;14.90;99.90;;;13.91;100.00;100382.19;4959804;28;20085;-78
2023/07/29 00:32:42;;;;;;;8.20;6.72;;;14.90;99.90;;;13.88;100.00;100385.00;4970142;28;20112;-78
2023/07/29 00:35:17;;;;;;;9.95;7.18;;;14.90;99.90;;;13.91;100.00;100379.53;4969763;28;20041;-78
2023/07/29 00:37:42;;;;;;;9.32;6.40;;;15.00;99.90;;;13.95;100.00;100371.28;4978879;28;20061;-78
2023/07/29 00:40:19;;;;;;;10.70;6.88;;;15.00;99.90;;;13.95;100.00;100373.94;4978669;28;20101;-78
2023/07/29 00:42:44;;;;;;;11.82;5.85;;;15.00;99.90;;;13.95;100.00;100379.22;4956440;28;20045;-77
2023/07/29 00:45:11;;;;;;;10.15;6.40;;;15.00;99.90;;;13.95;100.00;100376.59;4953473;28;20048;-78
2023/07/29 00:47:38;;;;;;;11.48;6.10;;;14.90;99.90;;;13.92;100.00;100371.47;4945850;28;20124;-78
2023/07/29 00:50:09;;;;;;;11.70;7.13;;;14.90;99.90;;;13.86;100.00;100363.94;4962780;28;20045;-78
2023/07/29 00:52:34;;;;;;;14.88;7.78;;;14.90;99.90;;;13.81;100.00;100365.22;4927823;28;20106;-78
2023/07/29 00:55:04;;;;;;;12.13;7.15;;;14.80;99.90;;;13.72;100.00;100353.44;4979826;28;20570;-77
2023/07/29 00:57:30;;;;;;;12.63;7.25;;;14.70;99.90;;;13.65;100.00;100353.00;4997669;28;20057;-78
2023/07/29 01:00:05;;;;;;;12.82;7.47;;;14.70;99.90;;;13.66;100.00;100352.03;4933503;28;20101;-78
2023/07/29 01:02:32;;;;;;;10.70;7.03;;;14.70;99.90;;;13.68;100.00;100355.41;4959982;28;20045;-78
2023/07/29 01:05:08;;;;;;;14.23;6.50;;;14.70;99.90;;;13.68;100.00;100350.13;4969209;28;20065;-78
2023/07/29 01:07:48;;;;;;;7.90;4.40;;;14.70;99.90;;;13.59;100.00;100344.59;4954013;28;20056;-78
2023/07/29 01:10:29;;;;;;;8.20;4.80;;;14.60;99.90;;;13.44;100.00;100343.81;4952752;28;20045;-77
2023/07/29 01:13:36;;;;;;;15.38;7.60;;;14.50;99.90;;;13.39;100.00;100338.81;4948699;28;20033;-77
2023/07/29 01:16:28;;;;;;;11.75;7.68;;;14.40;99.90;;;13.35;100.00;100332.03;4935506;28;20049;-78
2023/07/29 01:19:03;;;;;;;10.30;7.22;;;14.50;99.90;;;13.41;100.00;100350.16;4947703;28;20125;-78
2023/07/29 01:21:29;;;;;;;14.75;7.50;;;14.50;99.90;;;13.50;100.00;100360.13;4998905;28;20444;-77
2023/07/29 01:24:01;;;;;;;10.25;7.10;;;14.60;99.90;;;13.61;100.00;100348.84;4997077;28;20487;-78
2023/07/29 01:26:29;;;;;;;10.55;7.18;;;14.60;99.90;;;13.66;100.00;100353.81;4959530;28;20042;-78
2023/07/29 01:28:56;;;;;;;12.13;7.68;;;14.60;99.90;;;13.69;100.00;100362.41;4969023;28;20100;-78
2023/07/29 01:31:39;;;;;;;12.30;7.88;;;14.70;99.90;;;13.73;100.00;100355.94;4943994;28;20028;-78
2023/07/29 01:34:26;;;;;;;12.88;7.50;;;14.80;99.90;;;13.80;100.00;100358.19;4942558;28;20122;-78
2023/07/29 01:36:54;;;;;;;11.18;7.47;;;14.80;99.90;;;13.83;100.00;100358.00;4957122;28;20018;-78
2023/07/29 01:39:22;;;;;;;13.95;7.07;;;14.90;99.90;;;13.89;100.00;100363.75;4973614;28;20084;-78
2023/07/29 01:41:52;;;;;;;11.13;7.47;;;14.90;99.90;;;13.89;100.00;100363.75;4984482;28;20045;-78
2023/07/29 01:44:19;;;;;;;14.68;7.68;;;14.90;99.90;;;13.81;100.00;100350.16;4973378;28;20042;-78
2023/07/29 01:46:45;;;;;;;10.68;7.60;;;14.80;99.90;;;13.80;100.00;100355.56;4987182;28;20487;-78
2023/07/29 01:49:11;;;;;;;12.18;8.05;;;14.80;99.90;;;13.77;100.00;100346.03;4974042;28;20030;-78
2023/07/29 01:51:37;;;;;;;13.13;8.77;;;14.80;99.90;;;13.73;100.00;100350.66;5013402;28;20033;-77
2023/07/29 01:54:02;;;;;;;15.82;9.35;;;14.80;99.90;;;13.71;100.00;100342.00;4962722;28;20536;-78
2023/07/29 01:56:37;;;;;;;;;;;14.80;99.90;;;13.68;100.00;100336.91;4958219;28;20120;-78
2023/07/29 01:59:03;;;;;;;17.17;9.50;;;14.70;99.90;;;13.66;100.00;100335.31;4982156;28;19929;-78
2023/07/29 02:01:31;;;;;;;15.15;9.02;;;14.70;99.90;;;13.62;100.00;100331.16;4980771;28;20117;-78
2023/07/29 02:04:01;;;;;;;15.98;9.40;;;14.70;99.90;;;13.61;100.00;100338.25;4983622;28;20512;-78
2023/07/29 02:06:27;;;;;;;15.30;10.52;;;14.60;99.90;;;13.66;100.00;100345.88;4953763;28;20061;-78
2023/07/29 02:08:54;;;;;;;15.85;9.80;;;14.70;99.90;;;13.70;100.00;100342.09;4954170;28;20672;-77
2023/07/29 02:11:27;;;;;;;16.27;9.25;;;14.70;99.90;;;13.62;100.00;100339.94;4978127;28;20167;-78
2023/07/29 02:13:53;;;;;;;10.75;7.32;;;14.60;99.90;;;13.56;100.00;100345.63;4980534;28;20038;-78
2023/07/29 02:16:20;;;;;;;18.95;9.85;;;14.60;99.90;;;13.54;100.00;100343.09;4972565;28;20039;-78
2023/07/29 02:18:46;;;;;;;16.40;10.75;;;14.50;99.90;;;13.51;100.00;100339.81;4934867;28;20045;-78
2023/07/29 02:21:12;;;;;;;19.02;10.82;;;14.60;99.90;;;13.55;100.00;100336.00;4978336;22;20169;-78
2023/07/29 02:23:38;;;;;;;21.75;12.02;;;14.60;99.90;;;13.61;100.00;100340.06;4946312;28;20041;-77
2023/07/29 02:26:06;;;;;;;12.93;8.60;;;14.60;99.90;;;13.66;100.00;100346.72;4931205;28;20107;-77
2023/07/29 02:28:34;;;;;;;11.35;8.18;;;14.70;99.90;;;13.65;100.00;100344.19;4996783;28;20030;-78
2023/07/29 02:31:17;;;;;;;19.92;10.73;;;14.60;99.90;;;13.60;100.00;100339.19;4988638;28;20070;-77
2023/07/29 02:33:44;;;;;;;16.48;10.20;;;14.60;99.90;;;13.57;100.00;100334.13;4947269;28;20033;-78
2023/07/29 02:36:13;;;;;;;17.58;11.25;;;14.60;99.90;;;13.61;100.00;100335.63;4930255;28;20047;-78
2023/07/29 02:38:45;;;;;;;17.75;11.43;;;14.70;99.90;;;13.67;100.00;100337.88;4936276;28;20046;-79
2023/07/29 02:41:12;;;;;;;15.23;11.52;;;14.70;99.90;;;13.72;100.00;100342.84;4973317;23;20045;-78
2023/07/29 02:43:39;;;;;;;20.88;11.25;;;14.80;99.90;;;13.74;100.00;100347.09;5007019;28;20131;-78
2023/07/29 02:46:09;;;;;;;17.63;10.73;;;14.80;99.90;;;13.79;100.00;100351.22;5009208;28;20042;-78
2023/07/29 02:48:35;;;;;;;19.10;10.38;;;14.80;99.90;;;13.84;100.00;100349.94;5007950;28;20042;-78
2023/07/29 02:51:18;;;;;;;15.73;10.43;;;14.90;99.90;;;13.90;100.00;100346.91;4979620;28;20108;-78
2023/07/29 02:53:44;;;;;;;15.60;10.68;;;15.00;99.90;;;13.95;100.00;100346.59;4993421;28;20427;-78
2023/07/29 02:56:12;;;;;;;17.80;11.23;;;15.00;99.90;;;13.97;100.00;100351.78;4980493;28;20117;-77
2023/07/29 02:58:40;;;;;;;19.55;11.77;;;15.00;99.90;;;14.01;100.00;100356.78;4991722;28;20068;-78
2023/07/29 03:01:06;;;;;;;20.40;11.50;;;15.10;99.90;;;14.05;100.00;100358.28;5004576;22;20615;-78
2023/07/29 03:03:33;;;;;;;19.05;10.90;;;15.10;99.90;;;14.07;100.00;100350.25;4980732;28;20065;-78
2023/07/29 03:06:19;;;;;;;15.27;10.57;;;15.20;99.90;;;14.13;100.00;100352.47;5019980;28;20042;-78
2023/07/29 03:08:52;;;;;;;19.20;11.52;;;15.10;99.90;;;14.18;100.00;100349.50;4976494;28;20033;-78
2023/07/29 03:11:18;;;;;;;16.77;11.85;;;15.20;99.90;;;14.24;100.00;100357.06;4968562;28;20524;-77
2023/07/29 03:13:44;;;;;;;18.25;12.15;;;15.30;99.90;;;14.29;100.00;100360.22;4965769;28;20033;-78
2023/07/29 03:16:16;;;;;;;17.63;11.57;;;15.30;99.90;;;14.36;100.00;100361.50;4973826;28;20034;-78
2023/07/29 03:18:43;;;;;;;16.52;11.15;;;15.40;99.90;;;14.42;100.00;100366.38;4947428;28;20081;-78
2023/07/29 03:21:10;;;;;;;14.10;10.80;;;15.40;99.90;;;14.47;100.00;100364.28;4959673;22;20046;-78
2023/07/29 03:23:36;;;;;;;19.45;11.57;;;15.40;99.90;;;14.47;100.00;100363.41;4958778;28;20038;-78
2023/07/29 03:26:13;;;;;;;15.85;10.82;;;15.50;99.90;;;14.49;100.00;100359.72;4950251;28;20542;-79
2023/07/29 03:28:41;;;;;;;;;;;15.50;99.90;;;14.49;100.00;100357.06;4928388;28;20111;-79
2023/07/29 03:31:12;;;;;;;18.63;10.05;;;15.50;99.90;;;14.49;100.00;100361.50;4938624;28;19925;-79
2023/07/29 03:33:41;;;;;;;16.15;10.73;;;15.50;99.90;;;14.54;100.00;100360.25;4960449;28;20161;-78
2023/07/29 03:36:07;;;;;;;13.77;10.50;;;15.50;99.90;;;14.60;100.00;100352.84;4959095;28;20045;-78
2023/07/29 03:38:35;;;;;;;15.90;10.55;;;15.60;99.90;;;14.64;100.00;100359.63;4965717;28;20113;-79
2023/07/29 03:41:05;;;;;;;16.42;9.85;;;15.60;99.90;;;14.69;100.00;100354.88;4954334;28;20047;-78
2023/07/29 03:43:31;;;;;;;16.83;9.73;;;15.70;99.90;;;14.76;100.00;100353.47;4948227;28;20430;-77
2023/07/29 03:45:57;;;;;;;19.13;11.18;;;15.70;99.90;;;14.83;100.00;100359.19;4986272;28;20035;-79
2023/07/29 03:48:25;;;;;;;16.10;9.98;;;15.80;99.90;;;14.88;100.00;100363.22;4974277;28;20176;-78
2023/07/29 03:50:51;;;;;;;14.50;9.57;;;15.80;99.90;;;14.97;100.00;100365.22;4932574;28;20566;-78
2023/07/29 03:53:23;;;;;;;15.85;9.65;;;15.90;99.90;;;15.02;100.00;100359.59;4982383;28;20038;-78
2023/07/29 03:55:49;;;;;;;20.38;9.55;;;15.90;99.90;;;15.07;100.00;100364.56;4957386;28;20049;-78
2023/07/29 03:58:16;;;;;;;12.88;9.35;;;16.00;99.90;;;15.10;100.00;100354.59;4890398;28;20400;-78
2023/07/29 04:00:49;;;;;;;15.57;10.07;;;16.00;99.90;;;15.07;100.00;100351.31;4946796;28;20563;-78
2023/07/29 04:03:15;;;;;;;18.48;9.80;;;16.00;99.90;;;15.06;100.00;100354.94;4974559;28;20035;-78
2023/07/29 04:05:41;;;;;;;16.10;9.25;;;16.00;99.90;;;15.07;100.00;100349.50;4958608;28;20061;-78
2023/07/29 04:08:07;;;;;;;13.52;9.55;;;16.00;99.90;;;15.08;100.00;100347.72;4946215;28;20033;-78
2023/07/29 04:10:34;;;;;;;15.70;9.75;;;16.10;99.90;;;15.12;100.00;100339.44;4945763;28;20033;-79
2023/07/29 04:13:04;;;;;;;18.13;9.27;;;16.10;99.90;;;15.17;100.00;100345.25;4966654;28;20109;-79
2023/07/29 04:15:30;;;;;;;14.13;8.73;;;16.10;99.90;;;15.19;100.00;100350.44;4954856;28;20872;-78
2023/07/29 04:17:56;;;;;;;16.90;8.75;;;16.10;99.90;;;15.22;100.00;100349.38;4957162;28;20049;-78
2023/07/29 04:20:22;;;;;;;16.98;8.35;;;16.20;99.90;;;15.26;100.00;100349.03;4987149;22;20069;-80
2023/07/29 04:22:48;;;;;;;14.88;8.32;;;16.20;99.90;;;15.30;100.00;100361.13;4965946;28;20044;-79
2023/07/29 04:25:13;;;;;;;17.23;8.32;;;16.20;99.90;;;15.33;100.00;100352.09;4970806;28;20038;-78
2023/07/29 04:27:45;;;;;;;18.80;8.30;;;16.30;99.90;;;15.38;100.00;100348.16;4944425;28;20050;-79
2023/07/29 04:30:11;;;;;;;14.10;8.13;;;16.30;99.90;;;15.46;100.00;100357.34;4974666;28;20046;-79
2023/07/29 04:32:36;;;;;;;18.92;7.75;;;16.40;99.90;;;15.52;100.00;100356.91;4977608;28;20033;-78
2023/07/29 04:35:02;;;;;;;13.43;7.88;;;16.40;99.90;;;15.54;100.00;100371.75;4957082;28;20162;-78
2023/07/29 04:37:28;;;;;;;17.58;7.97;;;16.50;99.90;;;15.64;100.00;100363.13;4949747;28;20038;-79
2023/07/29 04:39:54;;;;;;;11.10;7.85;;;16.50;99.90;;;15.71;100.00;100356.41;4973316;28;20251;-79
2023/07/29 04:42:20;;;;;;;15.77;8.05;;;16.60;99.90;;;15.77;100.00;100362.13;4955787;28;20116;-78
2023/07/29 04:44:45;;;;;;;12.07;6.97;;;16.60;99.90;;;15.89;100.00;100364.84;4939183;28;20101;-79
2023/07/29 04:47:14;;;;;;;13.07;7.38;;;16.70;99.90;;;15.98;100.00;100353.50;4921415;28;20460;-79
2023/07/29 04:49:40;;;;;;;12.48;7.32;;;16.80;99.90;;;16.07;100.00;100350.19;4929497;28;20058;-79
2023/07/29 04:52:06;;;;;;;12.07;7.38;;;16.90;99.90;;;16.14;100.00;100348.75;4979106;28;20522;-78
2023/07/29 04:54:32;;;;;;;15.25;6.55;;;17.00;99.90;;;16.22;100.00;100344.66;4955079;28;20042;-79
2023/07/29 04:56:58;;;;;;;16.08;7.07;;;17.10;99.90;;;16.33;100.00;100347.38;4942532;28;20117;-78
2023/07/29 04:59:26;;;;;;;;;;;17.10;99.90;;;16.37;100.00;100340.81;4937618;28;20042;-80
2023/07/29 05:01:54;;;;;;;11.35;6.53;;;17.20;99.90;;;16.43;100.00;100340.34;4954551;28;19929;-79
2023/07/29 05:04:20;;;;;;;11.85;6.57;;;17.30;99.90;;;16.63;100.00;100353.91;4969443;28;20041;-79
2023/07/29 05:06:46;;;;;;;10.15;6.53;;;17.40;99.90;;;16.82;100.00;100343.56;4935763;28;20526;-78
2023/07/29 05:09:21;;;;;;;12.60;6.78;;;17.60;99.90;;;17.06;100.00;100339.91;4952394;28;20056;-79
2023/07/29 05:11:48;;;;;;;7.90;5.87;;;17.80;99.90;;;17.39;100.00;100347.00;4926175;28;20042;-79
2023/07/29 05:14:16;;;;;;;11.75;6.20;;;18.00;99.90;;;17.71;100.00;100355.03;4936045;28;20292;-79
2023/07/29 05:16:44;;;;;;;12.32;6.68;;;18.20;99.90;;;17.79;100.00;100352.56;4967025;28;20502;-79
2023/07/29 05:19:17;;;;;;;13.20;6.25;;;18.30;99.90;;;17.77;100.00;100351.81;4982342;28;20069;-79
2023/07/29 05:21:43;;;;;;;10.60;5.78;;;18.40;99.90;;;17.77;100.00;100354.50;4959949;28;20100;-79
2023/07/29 05:24:16;;;;;;;14.10;6.25;;;18.60;99.90;;;18.21;100.00;100349.97;4906204;28;20757;-79
2023/07/29 05:26:44;;;;;;;10.65;6.05;;;18.70;99.90;;;18.18;100.00;100350.22;4894022;28;20108;-79
2023/07/29 05:29:27;;;;;;;9.70;6.20;;;18.80;99.90;;;18.13;100.00;100349.78;4907454;28;20408;-78
2023/07/29 05:31:52;;;;;;;6.93;5.50;;;18.80;99.90;;;18.15;100.00;100342.50;4958642;28;20034;-79
2023/07/29 05:34:18;;;;;;;12.35;6.13;;;18.80;99.90;;;18.14;100.00;100343.50;4966102;28;20129;-79
2023/07/29 05:36:55;;;;;;;12.27;5.70;;;18.90;99.90;;;18.06;100.00;100339.78;4932278;28;20084;-79
2023/07/29 05:39:24;;;;;;;12.75;6.20;;;18.90;99.90;;;18.06;100.00;100334.44;4987739;28;20061;-79
2023/07/29 05:41:52;;;;;;;9.52;6.22;;;18.80;99.90;;;18.14;100.00;100335.50;4901041;28;20030;-80
2023/07/29 05:44:18;;;;;;;12.43;6.15;;;19.00;99.90;;;18.33;100.00;100334.75;4919602;28;20054;-79
2023/07/29 05:46:44;;;;;;;12.73;6.45;;;19.10;99.90;;;18.63;100.00;100338.44;4939720;28;20104;-78
2023/07/29 05:49:09;;;;;;;;;;;19.20;99.90;;;18.79;100.00;100332.63;4946534;28;20040;-79
2023/07/29 05:51:35;;;;;;;11.50;6.88;;;19.40;99.90;;;18.88;100.00;100336.31;4922887;28;19918;-79
2023/07/29 05:54:01;;;;;;;;;;;19.50;99.90;;;19.10;100.00;100338.78;4923201;28;20174;-79
2023/07/29 05:56:26;;;;;;;8.90;5.20;;;19.70;99.90;;;19.42;100.00;100346.59;4953665;28;20004;-80
2023/07/29 05:58:59;;;;;;;;;;;19.70;99.90;;;19.77;99.09;100329.22;4944180;28;20459;-79
2023/07/29 06:01:26;;;;;;;10.57;5.57;;;20.40;99.90;;;21.13;93.50;100343.25;4942409;28;19998;-80
2023/07/29 06:03:52;;;;;;;7.75;5.35;;;20.90;99.90;;;21.29;89.19;100335.41;4926654;28;20036;-78
2023/07/29 06:06:17;;;;;;;11.60;5.32;;;21.30;99.90;;;21.42;87.79;100332.38;4961176;28;20085;-78
2023/07/29 06:08:46;;;;;;;;;;;21.60;99.90;;;21.59;86.18;100333.41;4949679;28;20033;-79
2023/07/29 06:11:14;;;;;;;10.50;5.30;;;21.80;99.90;;;21.87;84.59;100320.75;4944293;28;19964;-80
2023/07/29 06:13:40;;;;;;;11.80;5.45;;;22.10;99.90;;;22.89;81.93;100324.63;4972114;28;20516;-80
2023/07/29 06:16:06;;;;;;;7.72;5.15;;;22.40;99.90;;;22.96;79.73;100328.38;4955999;28;20118;-80
2023/07/29 06:18:32;;;;;;;9.43;4.40;;;22.90;99.90;;;23.85;76.69;100328.78;4947895;28;20066;-79
2023/07/29 06:20:58;;;;;;;9.88;4.13;;;23.50;99.90;;;24.50;74.33;100325.22;4985795;28;20057;-80
2023/07/29 06:23:23;;;;;;;6.32;4.00;;;24.20;99.90;;;25.27;70.69;100329.97;4943124;28;20048;-79
2023/07/29 06:25:52;;;;;;;6.97;4.10;;;25.10;99.90;;;27.36;65.39;100338.31;4943319;28;20141;-80
2023/07/29 06:28:18;;;;;;;6.40;4.10;;;26.20;99.90;;;27.81;63.49;100330.88;4899110;28;20161;-80
2023/07/29 06:30:44;;;;;;;5.60;3.88;;;27.40;99.90;;;29.96;58.53;100353.53;4890207;28;20226;-80
2023/07/29 06:33:10;;;;;;;7.25;3.70;;;28.40;99.90;;;29.68;58.11;100347.41;4833557;29;20039;-81
2023/07/29 06:35:36;;;;;;;4.07;3.67;;;28.50;99.90;;;28.54;59.72;100337.97;4742484;29;20626;-79
2023/07/29 06:38:02;;;;;;;6.95;3.50;;;28.40;99.90;;;28.05;60.28;100331.53;4754588;29;20062;-81
2023/07/29 06:40:38;;;;;;;6.82;3.58;;;28.30;99.90;;;29.20;59.53;100335.63;4713967;29;20329;-81
2023/07/29 06:43:03;;;;;;;5.80;3.10;;;28.80;99.90;;;30.02;56.54;100341.88;4753040;29;20035;-80
2023/07/29 06:45:31;;;;;;;10.20;3.20;;;29.60;99.90;;;31.44;54.08;100361.22;4773949;29;20086;-80
2023/07/29 06:48:00;;;;;;;5.88;2.88;;;30.60;99.90;;;32.37;52.04;100359.72;4737588;29;20055;-80
2023/07/29 06:50:26;;;;;;;5.90;2.58;;;31.20;99.90;;;32.48;51.09;100364.44;4755654;29;20039;-80
2023/07/29 06:52:52;;;;;;;3.63;2.70;;;32.10;99.90;;;33.70;48.55;100381.94;4753112;29;20074;-79
2023/07/29 06:55:17;;;;;;;5.38;2.50;;;32.40;99.90;;;32.27;50.22;100381.19;4756411;29;20082;-80
2023/07/29 06:57:43;;;;;;;2.65;2.20;;;32.00;99.90;;;31.24;52.19;100364.00;4748479;29;20137;-80
2023/07/29 07:00:10;;;;;;;4.00;2.20;;;31.20;99.90;;;30.44;53.77;100357.94;4758662;29;20042;-80
2023/07/29 07:02:43;;;;;;;5.03;2.30;;;30.60;99.90;;;29.84;54.21;100358.75;4747835;29;20518;-80
2023/07/29 07:05:09;;;;;;;4.15;2.22;;;30.30;99.90;;;30.81;52.59;100364.53;4731312;29;20833;-79
2023/07/29 07:07:35;;;;;;;4.65;2.13;;;30.80;99.90;;;32.10;50.35;100385.53;4709581;29;20043;-78
2023/07/29 07:10:01;;;;;;;4.97;2.10;;;31.60;99.90;;;32.32;49.44;100385.97;4743228;29;20249;-79
2023/07/29 07:12:26;;;;;;;5.05;2.30;;;32.30;99.90;;;33.22;48.14;100399.97;4725464;29;20055;-80
2023/07/29 07:14:52;;;;;;;3.50;2.00;;;32.70;99.90;;;33.92;47.45;100404.91;4763760;29;20130;-79
2023/07/29 07:17:21;;;;;;;2.75;1.90;;;33.60;99.90;;;34.89;45.48;100409.16;4764120;29;20042;-81
2023/07/29 07:19:47;;;;;;;3.67;1.80;;;34.40;99.50;;;35.84;43.85;100414.41;4734778;29;20844;-79
2023/07/29 07:22:12;;;;;;;2.35;1.52;;;35.30;98.10;;;36.63;42.21;100424.50;4747190;29;20047;-80
2023/07/29 07:24:38;;;;;;;2.58;1.42;;;36.10;96.40;;;37.00;41.71;100433.00;4743199;29;20118;-76
2023/07/29 07:27:04;;;;;;;6.05;1.20;;;36.50;93.60;;;36.91;40.78;100429.00;4783996;29;20051;-75
2023/07/29 07:29:30;;;;;;;6.90;1.30;;;36.60;91.50;;;36.54;40.70;100429.53;4794562;29;20170;-74
2023/07/29 07:31:58;;;;;;;6.82;1.30;;;36.50;91.20;;;36.13;40.87;100432.47;4793912;29;20046;-75
2023/07/29 07:34:24;;;;;;;5.82;1.23;;;36.10;91.90;;;35.46;41.38;100427.59;4809507;29;20401;-75
2023/07/29 07:36:50;;;;;;;6.97;1.10;;;35.50;92.90;;;34.89;41.80;100416.56;4860296;29;20041;-75
2023/07/29 07:39:16;;;;;;;3.38;1.25;;;35.10;92.80;;;34.96;41.76;100410.94;4846685;29;20057;-75
2023/07/29 07:41:42;;;;;;;2.78;1.45;;;35.10;92.80;;;35.47;40.62;100412.03;4844643;29;20118;-76
2023/07/29 07:44:08;;;;;;;4.00;1.35;;;35.50;92.50;;;36.03;39.89;100415.00;4838804;29;20504;-76
2023/07/29 07:46:34;;;;;;;1.40;1.30;;;35.90;91.90;;;36.39;39.28;100421.91;4833221;29;20054;-76
2023/07/29 07:49:00;;;;;;;1.88;1.30;;;36.30;91.70;;;36.68;38.45;100427.34;4830444;29;20038;-75
2023/07/29 07:51:26;;;;;;;4.22;1.15;;;36.60;91.50;;;36.79;39.26;100423.66;4844874;29;20048;-75
2023/07/29 07:53:51;;;;;;;3.58;1.10;;;36.50;90.80;;;36.28;39.46;100411.88;4856311;29;20038;-76
2023/07/29 07:56:17;;;;;;;1.55;1.38;;;36.00;88.00;;;35.23;40.25;100406.66;4848473;29;20057;-76
2023/07/29 07:58:43;;;;;;;3.80;1.30;;;35.30;90.40;;;34.33;41.87;100380.53;4832818;29;20054;-76
2023/07/29 08:01:09;;;;;;;7.30;1.10;;;35.20;91.90;;;35.25;40.90;100376.28;4846349;29;20146;-77
2023/07/29 08:03:36;;;;;;;4.30;1.20;;;35.20;90.30;;;34.80;40.69;100375.06;4835622;29;20072;-76
2023/07/29 08:06:02;;;;;;;5.82;1.40;;;35.30;91.70;;;35.21;41.16;100381.44;4833415;29;20413;-75
2023/07/29 08:08:28;;;;;;;3.92;1.70;;;34.90;91.10;;;34.35;41.25;100372.94;4868402;29;20082;-77
2023/07/29 08:10:57;;;;;;;3.63;1.30;;;34.60;90.80;;;34.34;41.46;100371.25;4858260;29;20173;-78
2023/07/29 08:13:24;;;;;;;6.68;1.30;;;34.40;90.10;;;34.03;40.58;100361.47;4851102;29;20056;-78
2023/07/29 08:15:53;;;;;;;2.03;1.35;;;34.00;91.00;;;33.24;42.65;100343.28;4856425;29;20066;-77
2023/07/29 08:18:20;;;;;;;4.93;1.40;;;33.60;91.50;;;32.99;42.64;100339.81;4851995;29;20424;-77
2023/07/29 08:21:03;;;;;;;4.85;1.40;;;33.10;91.30;;;32.60;43.29;100333.75;4841410;29;20046;-78
2023/07/29 08:23:33;;;;;;;4.45;1.42;;;32.70;92.20;;;32.29;44.93;100313.72;4848021;29;20077;-78
2023/07/29 08:26:07;;;;;;;4.10;1.35;;;32.70;92.90;;;32.95;42.87;100319.50;4835456;29;20045;-79
2023/07/29 08:28:38;;;;;;;1.70;1.60;;;33.00;93.80;;;33.30;43.38;100317.81;4831162;29;20098;-77
2023/07/29 08:31:06;;;;;;;2.35;1.40;;;33.10;92.10;;;32.92;42.98;100315.34;4835618;29;20053;-83
2023/07/29 08:33:36;;;;;;;8.68;1.70;;;32.80;92.60;;;32.33;44.02;100301.28;4825930;29;20485;-83
2023/07/29 08:36:04;;;;;;;2.53;1.70;;;32.30;93.30;;;31.45;46.46;100291.34;4845866;29;20400;-78
2023/07/29 08:38:30;;;;;;;2.15;1.30;;;31.80;94.20;;;31.16;47.42;100295.44;4836300;29;20036;-78
2023/07/29 08:41:25;;;;;;;2.17;1.25;;;31.40;94.60;;;30.58;47.94;100278.06;4867830;29;20067;-78
2023/07/29 08:44:26;;;;;;;3.08;1.30;;;31.10;94.60;;;30.58;46.83;100279.97;4867770;29;20120;-77
2023/07/29 08:46:57;;;;;;;1.45;1.13;;;31.00;94.90;;;30.82;47.14;100281.97;4845094;29;20057;-78
2023/07/29 08:49:28;;;;;;;5.90;1.58;;;31.10;94.80;;;31.16;47.30;100287.28;4861369;29;20780;-78
2023/07/29 08:51:54;;;;;;;3.70;1.60;;;31.30;94.90;;;31.55;46.27;100288.13;4861122;29;20128;-78
2023/07/29 08:54:24;;;;;;;1.75;1.33;;;31.60;94.50;;;31.55;45.72;100305.25;4877268;29;20037;-78
2023/07/29 08:56:55;;;;;;;1.30;1.20;;;31.50;94.40;;;31.03;47.08;100285.47;4862081;29;20543;-79
2023/07/29 08:59:25;;;;;;;2.10;1.25;;;31.30;95.20;;;30.82;47.70;100281.13;4894087;29;20052;-77
2023/07/29 09:01:56;;;;;;;6.10;1.45;;;31.00;96.10;;;30.35;50.31;100266.88;4868106;29;20033;-78
2023/07/29 09:04:26;;;;;;;2.03;1.40;;;30.70;96.10;;;30.03;50.17;100261.25;4861055;29;20044;-79
2023/07/29 09:07:01;;;;;;;5.03;1.50;;;30.40;97.00;;;29.76;50.96;100250.44;4886577;29;20044;-80
2023/07/29 09:09:28;;;;;;;1.67;1.35;;;30.20;97.40;;;29.60;52.89;100242.66;4846968;29;20127;-79
2023/07/29 09:11:54;;;;;;;1.60;1.48;;;29.90;97.10;;;29.34;52.49;100229.91;4876590;29;20040;-81
2023/07/29 09:14:26;;;;;;;5.78;1.50;;;30.00;98.10;;;29.66;52.06;100225.56;4828688;29;20041;-80
2023/07/29 09:16:53;;;;;;;1.48;1.30;;;30.10;97.00;;;29.76;51.32;100234.16;4845284;29;20045;-80
2023/07/29 09:19:22;;;;;;;5.35;1.58;;;30.20;98.40;;;30.15;52.52;100232.44;4869529;29;20112;-81
2023/07/29 09:21:54;;;;;;;2.92;1.63;;;30.40;98.00;;;30.16;51.78;100225.94;4839534;29;20153;-80
2023/07/29 09:24:25;;;;;;;1.90;1.50;;;30.40;97.50;;;30.11;51.10;100233.03;4876826;29;20356;-79
2023/07/29 09:26:57;;;;;;;6.38;1.80;;;30.40;97.00;;;30.04;50.88;100233.06;4852721;29;20044;-80
2023/07/29 09:29:28;;;;;;;3.05;1.90;;;30.30;96.80;;;29.74;50.84;100224.53;4863613;29;20054;-79
2023/07/29 09:32:21;;;;;;;2.80;1.95;;;30.00;96.50;;;29.32;51.14;100218.44;4878954;29;20037;-79
2023/07/29 09:35:12;;;;;;;3.05;2.13;;;29.80;97.10;;;29.34;50.95;100210.94;4783087;28;3622283;-79
2023/07/29 09:37:39;;;;;;;5.20;1.83;;;29.70;97.80;;;29.30;51.95;100205.09;4954438;28;20066;-79
2023/07/29 09:40:17;;;;;;;2.38;1.60;;;29.60;98.60;;;28.99;53.88;100202.91;4940365;28;20442;-79
2023/07/29 09:42:56;;;;;;;2.13;1.77;;;29.40;99.10;;;28.84;53.19;100194.97;4951642;28;20102;-78
2023/07/29 09:45:29;;;;;;;4.38;1.83;;;29.20;99.50;;;28.57;54.35;100186.72;4956105;28;20039;-79
2023/07/29 09:48:02;;;;;;;3.13;1.90;;;29.10;99.30;;;28.40;54.49;100186.22;4922799;28;20516;-80
2023/07/29 09:50:30;;;;;;;2.25;1.98;;;28.80;99.40;;;27.96;55.45;100176.59;4933155;28;20102;-79
2023/07/29 09:53:03;;;;;;;9.82;2.00;;;28.40;99.60;;;27.49;55.81;100171.88;4953914;28;20154;-79
2023/07/29 09:55:33;;;;;;;2.75;2.00;;;28.00;99.70;;;27.07;56.44;100160.03;4911722;28;20065;-79
2023/07/29 09:58:07;;;;;;;3.75;2.30;;;27.70;99.90;;;26.55;57.76;100162.78;4958155;28;20511;-77
2023/07/29 10:00:38;;;;;;;5.78;2.03;;;27.30;99.90;;;26.11;58.69;100154.72;4952701;28;20054;-79
2023/07/29 10:03:06;;;;;;;2.10;1.85;;;26.90;99.90;;;25.85;59.86;100155.97;4963003;28;20047;-78
2023/07/29 10:05:35;;;;;;;5.93;2.45;;;26.60;99.90;;;25.75;60.88;100150.88;4932419;28;20568;-78
2023/07/29 10:08:02;;;;;;;3.65;1.98;;;26.50;99.90;;;25.79;60.63;100162.16;4945737;28;20053;-78
2023/07/29 10:10:29;;;;;;;4.63;2.35;;;26.50;99.90;;;25.83;60.51;100157.19;4955349;28;20038;-77
2023/07/29 10:12:58;;;;;;;3.58;2.05;;;26.40;99.90;;;25.85;61.31;100155.97;4939361;28;20053;-78